createdAt,value
2022-10-30T00:02:24.995Z,13.10
2022-10-30T00:07:26.712Z,13.00
2022-10-30T00:12:28.453Z,12.90
2022-10-30T00:17:30.193Z,12.90
2022-10-30T00:22:31.964Z,12.80
2022-10-30T00:27:33.728Z,12.70
2022-10-30T00:32:35.371Z,12.70
2022-10-30T00:37:37.346Z,12.60
2022-10-30T00:42:38.950Z,12.50
2022-10-30T00:47:40.720Z,12.50
2022-10-30T00:52:42.462Z,12.40
2022-10-30T00:57:44.239Z,12.30
2022-10-30T01:02:46.035Z,12.40
2022-10-30T01:07:47.722Z,12.30
2022-10-30T01:12:49.502Z,12.30
2022-10-30T01:17:51.241Z,12.20
2022-10-30T01:22:52.961Z,12.00
2022-10-30T01:27:54.745Z,11.90
2022-10-30T01:32:56.656Z,12.00
2022-10-30T01:37:58.914Z,11.90
2022-10-30T01:43:00.951Z,11.90
2022-10-30T01:48:02.715Z,11.80
2022-10-30T01:53:04.465Z,11.80
2022-10-30T01:58:06.116Z,11.80
2022-10-30T02:03:07.668Z,11.80
2022-10-30T02:08:09.406Z,11.80
2022-10-30T02:13:10.957Z,11.70
2022-10-30T02:18:12.624Z,11.60
2022-10-30T02:23:14.383Z,11.60
2022-10-30T02:28:16.010Z,11.60
2022-10-30T02:38:20.267Z,11.50
2022-10-30T02:43:21.996Z,11.50
2022-10-30T02:48:23.507Z,11.40
2022-10-30T02:53:25.208Z,11.30
2022-10-30T02:58:26.953Z,11.30
2022-10-30T03:03:28.704Z,11.30
2022-10-30T03:08:30.469Z,11.30
2022-10-30T03:13:32.201Z,11.30
2022-10-30T03:18:33.976Z,11.20
2022-10-30T03:23:35.718Z,11.30
2022-10-30T03:28:37.496Z,11.30
2022-10-30T03:33:39.222Z,11.30
2022-10-30T03:38:40.775Z,11.20
2022-10-30T03:43:42.436Z,11.20
2022-10-30T03:48:44.203Z,11.10
2022-10-30T03:53:45.930Z,11.10
2022-10-30T03:58:47.664Z,11.10
2022-10-30T04:03:49.453Z,11.20
2022-10-30T04:08:50.991Z,11.10
2022-10-30T04:13:52.633Z,11.10
2022-10-30T04:18:54.408Z,11.20
2022-10-30T04:23:56.137Z,11.10
2022-10-30T04:28:57.887Z,11.10
2022-10-30T04:33:59.660Z,11.10
2022-10-30T04:39:01.420Z,11.00
2022-10-30T04:44:03.152Z,10.90
2022-10-30T04:49:04.905Z,10.90
2022-10-30T04:54:06.977Z,10.90
2022-10-30T04:59:09.225Z,10.80
2022-10-30T05:04:10.801Z,10.80
2022-10-30T05:09:12.577Z,10.70
2022-10-30T05:14:14.307Z,10.70
2022-10-30T05:19:16.079Z,10.60
2022-10-30T05:24:17.822Z,10.50
2022-10-30T05:29:19.570Z,10.50
2022-10-30T05:34:21.336Z,10.50
2022-10-30T05:39:23.089Z,10.50
2022-10-30T05:44:47.251Z,10.50
2022-10-30T05:49:46.642Z,10.50
2022-10-30T05:54:48.419Z,10.60
2022-10-30T05:59:50.149Z,10.60
2022-10-30T06:04:51.927Z,10.70
2022-10-30T06:09:53.579Z,10.80
2022-10-30T06:14:55.102Z,10.80
2022-10-30T06:19:56.880Z,10.90
2022-10-30T06:24:58.517Z,10.90
2022-10-30T06:30:00.095Z,10.90
2022-10-30T06:35:01.744Z,10.90
2022-10-30T06:40:03.558Z,11.00
2022-10-30T06:45:05.315Z,11.20
2022-10-30T06:50:06.879Z,11.40
2022-10-30T06:55:08.539Z,11.70
2022-10-30T07:00:10.298Z,12.00
2022-10-30T07:05:12.039Z,12.30
2022-10-30T07:10:13.579Z,12.60
2022-10-30T07:15:15.233Z,13.00
2022-10-30T07:20:16.776Z,13.50
2022-10-30T07:25:18.423Z,13.80
2022-10-30T07:30:20.242Z,14.10
2022-10-30T07:35:21.940Z,14.30
2022-10-30T07:40:23.497Z,14.50
2022-10-30T07:45:25.112Z,14.80
2022-10-30T07:50:26.887Z,15.40
2022-10-30T07:55:28.642Z,15.90
2022-10-30T08:00:30.424Z,16.20
2022-10-30T08:05:32.047Z,16.50
2022-10-30T08:10:33.595Z,16.90
2022-10-30T08:15:35.352Z,17.20
2022-10-30T08:20:37.141Z,17.40
2022-10-30T08:25:38.829Z,17.90
2022-10-30T08:30:40.589Z,18.20
2022-10-30T08:35:42.363Z,18.40
2022-10-30T08:40:44.122Z,18.50
2022-10-30T08:45:45.670Z,18.50
2022-10-30T08:50:47.314Z,18.60
2022-10-30T08:55:49.042Z,18.80
2022-10-30T09:00:50.799Z,19.00
2022-10-30T09:05:52.558Z,19.20
2022-10-30T09:10:54.305Z,19.50
2022-10-30T09:15:56.093Z,19.80
2022-10-30T09:20:57.825Z,20.10
2022-10-30T09:25:59.587Z,20.20
2022-10-30T09:31:01.122Z,20.50
2022-10-30T09:36:02.788Z,20.70
2022-10-30T09:41:04.511Z,20.90
2022-10-30T09:46:06.285Z,21.20
2022-10-30T09:51:08.041Z,21.50
2022-10-30T09:56:09.806Z,21.60
2022-10-30T10:01:11.636Z,21.70
2022-10-30T10:06:13.287Z,21.90
2022-10-30T10:11:15.069Z,22.20
2022-10-30T10:16:16.793Z,22.40
2022-10-30T10:21:18.559Z,22.40
2022-10-30T10:26:20.317Z,22.60
2022-10-30T10:31:22.084Z,22.90
2022-10-30T10:36:23.703Z,23.10
2022-10-30T10:41:25.256Z,22.80
2022-10-30T10:46:27.009Z,22.70
2022-10-30T10:51:28.782Z,22.90
2022-10-30T10:56:30.522Z,23.00
2022-10-30T11:01:32.412Z,23.10
2022-10-30T11:06:34.336Z,23.10
2022-10-30T11:11:35.914Z,23.00
2022-10-30T11:16:37.540Z,23.00
2022-10-30T11:21:39.284Z,23.20
2022-10-30T11:26:41.037Z,23.40
2022-10-30T11:31:42.815Z,23.30
2022-10-30T11:36:44.362Z,23.40
2022-10-30T11:41:46.003Z,23.50
2022-10-30T11:46:47.740Z,23.50
2022-10-30T11:51:49.257Z,23.50
2022-10-30T11:56:50.941Z,23.60
2022-10-30T12:01:52.806Z,23.60
2022-10-30T12:06:54.472Z,23.60
2022-10-30T12:11:56.217Z,23.70
2022-10-30T12:16:57.965Z,23.70
2022-10-30T12:21:59.718Z,23.70
2022-10-30T12:27:01.479Z,23.70
2022-10-30T12:32:03.245Z,23.70
2022-10-30T12:37:04.975Z,23.70
2022-10-30T12:42:06.510Z,23.70
2022-10-30T12:47:08.173Z,23.70
2022-10-30T12:52:09.727Z,23.70
2022-10-30T12:57:11.364Z,23.70
2022-10-30T13:02:13.263Z,23.80
2022-10-30T13:07:14.911Z,23.80
2022-10-30T13:12:16.636Z,23.60
2022-10-30T13:17:18.384Z,23.50
2022-10-30T13:22:20.148Z,23.40
2022-10-30T13:27:21.928Z,23.40
2022-10-30T13:32:23.642Z,23.40
2022-10-30T13:37:25.396Z,23.40
2022-10-30T13:42:27.153Z,23.40
2022-10-30T13:47:28.937Z,23.40
2022-10-30T13:52:30.679Z,23.40
2022-10-30T13:57:32.403Z,23.40
2022-10-30T14:02:34.422Z,23.40
2022-10-30T14:07:36.035Z,23.20
2022-10-30T14:12:37.983Z,23.20
2022-10-30T14:17:39.574Z,23.20
2022-10-30T14:22:41.302Z,23.20
2022-10-30T14:27:42.844Z,23.10
2022-10-30T14:32:44.465Z,23.00
2022-10-30T14:37:46.264Z,22.90
2022-10-30T14:42:47.987Z,22.80
2022-10-30T14:47:49.579Z,22.70
2022-10-30T14:52:51.247Z,22.50
2022-10-30T14:57:52.789Z,22.40
2022-10-30T15:02:54.389Z,22.30
2022-10-30T15:07:56.262Z,22.10
2022-10-30T15:13:01.313Z,21.90
2022-10-30T15:18:04.036Z,21.60
2022-10-30T15:23:05.857Z,21.40
2022-10-30T15:28:07.545Z,21.30
2022-10-30T15:33:09.308Z,21.10
2022-10-30T15:38:11.061Z,20.90
2022-10-30T15:43:12.801Z,20.60
2022-10-30T15:48:14.418Z,20.30
2022-10-30T15:53:16.017Z,20.10
2022-10-30T15:58:18.141Z,19.80
2022-10-30T16:03:20.139Z,19.60
2022-10-30T16:08:21.894Z,19.50
2022-10-30T16:13:23.552Z,19.40
2022-10-30T16:18:25.114Z,19.30
2022-10-30T16:23:26.862Z,19.10
2022-10-30T16:28:28.624Z,19.00
2022-10-30T16:33:32.391Z,18.80
2022-10-30T16:38:34.015Z,18.70
2022-10-30T16:43:35.571Z,18.60
2022-10-30T16:48:37.186Z,18.40
2022-10-30T16:53:38.932Z,18.30
2022-10-30T16:58:40.698Z,18.10
2022-10-30T17:03:42.313Z,18.00
2022-10-30T17:08:44.913Z,17.80
2022-10-30T17:13:46.576Z,17.70
2022-10-30T17:18:48.345Z,17.40
2022-10-30T17:23:50.110Z,17.20
2022-10-30T17:28:51.833Z,17.00
2022-10-30T17:33:53.382Z,16.80
2022-10-30T17:38:55.049Z,16.50
2022-10-30T17:43:56.819Z,16.50
2022-10-30T17:48:58.455Z,16.40
2022-10-30T17:53:59.993Z,16.40
2022-10-30T17:59:01.744Z,16.40
2022-10-30T18:04:03.520Z,16.40
2022-10-30T18:09:05.237Z,16.30
2022-10-30T18:14:06.830Z,16.20
2022-10-30T18:19:08.473Z,16.00
2022-10-30T18:24:10.223Z,15.80
2022-10-30T18:29:11.957Z,15.70
2022-10-30T18:34:13.741Z,15.60
2022-10-30T18:39:15.496Z,15.50
2022-10-30T18:44:17.232Z,15.40
2022-10-30T18:49:18.980Z,15.30
2022-10-30T18:54:20.742Z,15.10
2022-10-30T18:59:22.275Z,14.90
2022-10-30T19:04:23.949Z,14.70
2022-10-30T19:09:25.557Z,14.60
2022-10-30T19:14:27.136Z,14.40
2022-10-30T19:19:28.892Z,14.30
2022-10-30T19:24:30.547Z,14.20
2022-10-30T19:29:32.263Z,14.10
2022-10-30T19:34:33.825Z,14.00
2022-10-30T19:39:35.592Z,13.90
2022-10-30T19:44:37.354Z,13.80
2022-10-30T19:49:39.116Z,13.70
2022-10-30T19:54:40.848Z,13.60
2022-10-30T19:59:42.402Z,13.50
2022-10-30T20:04:44.031Z,13.40
2022-10-30T20:09:45.801Z,13.30
2022-10-30T20:14:47.328Z,13.10
2022-10-30T20:19:48.904Z,13.10
2022-10-30T20:24:50.748Z,13.00
2022-10-30T20:29:52.503Z,12.90
2022-10-30T20:34:54.267Z,12.70
2022-10-30T20:39:56.032Z,12.70
2022-10-30T20:44:57.740Z,12.50
2022-10-30T20:49:59.511Z,12.50
2022-10-30T20:55:01.339Z,12.30
2022-10-30T21:00:03.022Z,12.20
2022-10-30T21:05:17.310Z,12.10
2022-10-30T21:10:30.335Z,12.00
2022-10-30T21:15:32.424Z,11.90
2022-10-30T21:20:34.071Z,11.90
2022-10-30T21:25:35.949Z,11.90
2022-10-30T21:30:37.693Z,11.90
2022-10-30T21:35:39.443Z,11.80
2022-10-30T21:40:41.195Z,11.80
2022-10-30T21:45:42.940Z,11.70
2022-10-30T21:50:44.697Z,11.70
2022-10-30T21:55:46.439Z,11.60
2022-10-30T22:00:48.232Z,11.60
2022-10-30T22:05:49.968Z,11.40
2022-10-30T22:10:51.507Z,11.30
2022-10-30T22:15:53.139Z,11.20
2022-10-30T22:20:54.889Z,11.10
2022-10-30T22:25:56.653Z,11.10
2022-10-30T22:30:58.397Z,11.00
2022-10-30T22:36:00.167Z,10.90
2022-10-30T22:41:01.734Z,10.90
2022-10-30T22:46:03.382Z,10.90
2022-10-30T22:51:05.128Z,10.80
2022-10-30T22:56:06.871Z,10.70
2022-10-30T23:01:08.622Z,10.70
2022-10-30T23:06:12.682Z,10.70
2022-10-30T23:11:14.339Z,10.60
2022-10-30T23:16:16.116Z,10.60
2022-10-30T23:21:17.859Z,10.60
2022-10-30T23:26:19.590Z,10.50
2022-10-30T23:31:21.331Z,10.40
2022-10-30T23:36:22.850Z,10.40
2022-10-30T23:41:24.537Z,10.30
2022-10-30T23:46:26.262Z,10.20
2022-10-30T23:51:28.059Z,10.20
2022-10-30T23:56:29.803Z,10.10
